createdAt,value
2018-07-09T00:02:10.459Z,5.73
2018-07-09T00:04:38.950Z,4.83
2018-07-09T00:07:07.481Z,5.47
2018-07-09T00:09:35.954Z,5.23
2018-07-09T00:12:04.485Z,4.77
2018-07-09T00:14:33.245Z,5.00
2018-07-09T00:17:01.729Z,5.00
2018-07-09T00:19:30.607Z,5.47
2018-07-09T00:21:59.097Z,5.10
2018-07-09T00:24:27.566Z,5.33
2018-07-09T00:26:56.196Z,5.13
2018-07-09T00:29:24.656Z,5.20
2018-07-09T00:31:53.197Z,5.23
2018-07-09T00:34:21.646Z,5.47
2018-07-09T00:36:50.130Z,5.40
2018-07-09T00:39:18.591Z,5.83
2018-07-09T00:41:47.078Z,5.83
2018-07-09T00:44:15.619Z,6.10
2018-07-09T00:46:44.082Z,5.23
2018-07-09T00:49:12.623Z,5.27
2018-07-09T00:51:41.111Z,5.77
2018-07-09T00:54:10.192Z,5.50
2018-07-09T00:56:38.713Z,5.27
2018-07-09T00:59:07.203Z,6.10
2018-07-09T01:01:35.748Z,6.23
2018-07-09T01:04:04.295Z,5.73
2018-07-09T01:06:33.076Z,5.70
2018-07-09T01:09:01.908Z,6.77
2018-07-09T01:11:40.464Z,5.70
2018-07-09T01:14:09.251Z,6.50
2018-07-09T01:16:37.707Z,6.70
2018-07-09T01:19:06.289Z,6.50
2018-07-09T01:21:34.812Z,7.27
2018-07-09T01:24:03.387Z,5.90
2018-07-09T01:26:31.908Z,6.43
2018-07-09T01:29:00.420Z,5.63
2018-07-09T01:31:28.899Z,6.30
2018-07-09T01:33:57.384Z,7.27
2018-07-09T01:36:25.835Z,6.97
2018-07-09T01:38:54.310Z,6.80
2018-07-09T01:41:22.754Z,6.40
2018-07-09T01:43:51.579Z,6.20
2018-07-09T01:46:20.033Z,6.60
2018-07-09T01:48:48.516Z,6.40
2018-07-09T01:51:16.956Z,6.50
2018-07-09T01:53:45.448Z,7.23
2018-07-09T01:56:13.912Z,6.70
2018-07-09T01:58:42.378Z,6.83
2018-07-09T02:01:10.842Z,6.47
2018-07-09T02:03:39.531Z,6.70
2018-07-09T02:06:08.059Z,6.33
2018-07-09T02:08:36.529Z,6.43
2018-07-09T02:11:05.192Z,7.53
2018-07-09T02:13:33.720Z,7.17
2018-07-09T02:16:02.251Z,6.70
2018-07-09T02:18:30.743Z,6.73
2018-07-09T02:20:59.203Z,7.30
2018-07-09T02:23:27.711Z,7.00
2018-07-09T02:25:56.202Z,8.20
2018-07-09T02:28:24.739Z,7.50
2018-07-09T02:30:53.211Z,7.30
2018-07-09T02:33:21.705Z,7.40
2018-07-09T02:35:50.151Z,7.67
2018-07-09T02:38:18.745Z,7.37
2018-07-09T02:40:47.249Z,7.13
2018-07-09T02:43:15.719Z,7.97
2018-07-09T02:45:44.210Z,7.90
2018-07-09T02:48:12.680Z,7.30
2018-07-09T02:50:41.181Z,7.93
2018-07-09T02:53:09.625Z,7.80
2018-07-09T02:55:38.123Z,7.23
2018-07-09T02:58:06.604Z,8.70
2018-07-09T03:00:35.219Z,7.47
2018-07-09T03:03:03.840Z,8.87
2018-07-09T03:05:32.342Z,8.40
2018-07-09T03:08:00.808Z,7.53
2018-07-09T03:10:29.301Z,8.33
2018-07-09T03:12:57.767Z,8.13
2018-07-09T03:15:26.277Z,8.13
2018-07-09T03:17:54.780Z,7.60
2018-07-09T03:20:23.292Z,8.23
2018-07-09T03:22:52.273Z,7.47
2018-07-09T03:25:20.784Z,7.87
2018-07-09T03:27:49.247Z,8.73
2018-07-09T03:30:17.708Z,7.17
2018-07-09T03:32:46.183Z,8.07
2018-07-09T03:35:14.664Z,8.60
2018-07-09T03:37:43.131Z,8.00
2018-07-09T03:40:11.618Z,7.97
2018-07-09T03:42:40.091Z,7.70
2018-07-09T03:45:08.629Z,7.77
2018-07-09T03:47:37.089Z,6.70
2018-07-09T03:50:06.003Z,7.07
2018-07-09T03:52:34.459Z,5.83
2018-07-09T03:55:02.950Z,7.33
2018-07-09T03:57:31.426Z,6.53
2018-07-09T03:59:59.894Z,7.13
2018-07-09T04:02:28.399Z,7.70
2018-07-09T04:04:56.905Z,7.27
2018-07-09T04:07:25.359Z,7.83
2018-07-09T04:09:53.845Z,8.00
2018-07-09T04:12:22.324Z,8.10
2018-07-09T04:14:50.867Z,8.13
2018-07-09T04:17:19.304Z,7.73
2018-07-09T04:19:47.760Z,8.20
2018-07-09T04:22:16.215Z,7.57
2018-07-09T04:24:44.687Z,7.30
2018-07-09T04:27:13.134Z,8.13
2018-07-09T04:29:41.618Z,8.30
2018-07-09T04:32:10.073Z,8.97
2018-07-09T04:34:38.538Z,7.73
2018-07-09T04:37:07.018Z,7.53
2018-07-09T04:39:35.491Z,7.17
2018-07-09T04:47:54.129Z,7.00
2018-07-09T04:50:22.604Z,6.73
2018-07-09T04:52:51.346Z,6.60
2018-07-09T04:55:19.896Z,7.07
2018-07-09T04:57:48.352Z,7.00
2018-07-09T05:00:16.844Z,6.63
2018-07-09T05:02:45.302Z,7.10
2018-07-09T05:05:13.802Z,7.77
2018-07-09T05:07:42.307Z,7.23
2018-07-09T05:10:10.851Z,7.27
2018-07-09T05:12:39.382Z,7.67
2018-07-09T05:15:07.884Z,7.87
2018-07-09T05:17:36.350Z,7.40
2018-07-09T05:20:04.884Z,6.72
2018-07-09T05:22:33.365Z,6.70
2018-07-09T05:25:01.830Z,6.75
2018-07-09T05:27:30.337Z,6.60
2018-07-09T05:29:58.806Z,6.90
2018-07-09T05:32:27.295Z,7.30
2018-07-09T05:34:55.769Z,6.97
2018-07-09T05:37:24.272Z,6.55
2018-07-09T05:39:52.794Z,6.75
2018-07-09T05:42:21.310Z,7.20
2018-07-09T05:44:49.815Z,7.05
2018-07-09T05:47:18.358Z,6.58
2018-07-09T05:49:47.353Z,6.83
2018-07-09T05:52:15.855Z,8.25
2018-07-09T05:54:44.326Z,6.65
2018-07-09T05:57:12.795Z,7.20
2018-07-09T05:59:41.238Z,6.70
2018-07-09T06:02:09.956Z,7.47
2018-07-09T06:04:38.467Z,6.92
2018-07-09T06:07:06.991Z,7.25
2018-07-09T06:09:35.491Z,6.35
2018-07-09T06:12:04.051Z,6.37
2018-07-09T06:14:32.555Z,7.92
2018-07-09T06:17:01.044Z,6.92
2018-07-09T06:19:29.606Z,7.28
2018-07-09T06:21:58.011Z,7.12
2018-07-09T06:24:26.735Z,7.62
2018-07-09T06:26:55.298Z,7.62
2018-07-09T06:29:23.776Z,7.70
2018-07-09T06:31:52.286Z,6.33
2018-07-09T06:34:20.765Z,6.50
2018-07-09T06:36:49.267Z,6.70
2018-07-09T06:39:17.735Z,6.28
2018-07-09T06:41:46.240Z,6.80
2018-07-09T06:44:14.728Z,6.85
2018-07-09T06:46:43.238Z,6.50
2018-07-09T06:49:11.728Z,6.70
2018-07-09T06:51:40.231Z,6.30
2018-07-09T06:54:08.719Z,6.65
2018-07-09T06:56:37.220Z,6.50
2018-07-09T06:59:05.743Z,5.95
2018-07-09T07:01:34.227Z,6.37
2018-07-09T07:04:02.731Z,6.05
2018-07-09T07:06:31.250Z,6.25
2018-07-09T07:08:59.805Z,6.17
2018-07-09T07:11:28.264Z,5.35
2018-07-09T07:13:56.747Z,6.12
2018-07-09T07:16:25.263Z,5.28
2018-07-09T07:18:53.727Z,5.53
2018-07-09T07:21:22.514Z,5.10
2018-07-09T07:23:51.006Z,4.53
2018-07-09T07:26:19.495Z,4.75
2018-07-09T07:28:48.017Z,4.45
2018-07-09T07:31:16.558Z,5.25
2018-07-09T07:33:45.051Z,4.25
2018-07-09T07:36:13.599Z,4.30
2018-07-09T07:38:42.099Z,4.53
2018-07-09T07:41:10.651Z,4.50
2018-07-09T07:43:39.154Z,4.22
2018-07-09T07:46:07.634Z,4.20
2018-07-09T07:48:36.130Z,4.72
2018-07-09T07:51:04.643Z,4.62
2018-07-09T07:53:33.127Z,4.35
2018-07-09T07:56:01.855Z,4.90
2018-07-09T07:58:30.348Z,4.80
2018-07-09T08:00:58.810Z,4.75
2018-07-09T08:03:27.317Z,4.20
2018-07-09T08:05:55.880Z,4.12
2018-07-09T08:08:24.387Z,4.47
2018-07-09T08:10:52.834Z,3.85
2018-07-09T08:13:29.227Z,4.70
2018-07-09T08:15:50.156Z,4.40
2018-07-09T08:18:18.648Z,4.28
2018-07-09T08:20:47.152Z,4.17
2018-07-09T08:23:15.682Z,4.20
2018-07-09T08:25:44.350Z,4.33
2018-07-09T08:28:12.653Z,4.42
2018-07-09T08:30:41.167Z,4.17
2018-07-09T08:33:11.386Z,4.75
2018-07-09T08:35:40.889Z,4.25
2018-07-09T08:38:09.409Z,4.37
2018-07-09T08:40:37.936Z,4.58
2018-07-09T08:43:06.531Z,4.45
2018-07-09T08:45:35.019Z,3.98
2018-07-09T08:48:03.519Z,4.55
2018-07-09T08:50:32.003Z,4.28
2018-07-09T08:53:00.522Z,4.40
2018-07-09T08:55:29.028Z,4.40
2018-07-09T08:57:57.519Z,4.50
2018-07-09T09:00:26.052Z,4.83
2018-07-09T09:02:54.571Z,4.78
2018-07-09T09:05:23.067Z,4.35
2018-07-09T09:07:51.543Z,4.33
2018-07-09T09:10:20.082Z,4.47
2018-07-09T09:12:48.532Z,4.30
2018-07-09T09:15:16.994Z,3.72
2018-07-09T09:17:45.499Z,3.98
2018-07-09T09:20:13.968Z,4.33
2018-07-09T09:22:42.447Z,4.00
2018-07-09T09:25:10.992Z,4.40
2018-07-09T09:27:39.451Z,4.17
2018-07-09T09:30:08.020Z,3.98
2018-07-09T09:32:36.540Z,4.67
2018-07-09T09:35:05.056Z,4.60
2018-07-09T09:37:33.607Z,4.25
2018-07-09T09:40:02.079Z,4.50
2018-07-09T09:42:30.524Z,4.70
2018-07-09T09:44:58.998Z,5.00
2018-07-09T09:47:27.448Z,4.60
2018-07-09T09:49:55.976Z,4.87
2018-07-09T09:52:24.432Z,4.80
2018-07-09T09:54:52.956Z,5.17
2018-07-09T09:57:21.447Z,5.05
2018-07-09T09:59:49.936Z,5.25
2018-07-09T10:02:18.462Z,5.33
2018-07-09T10:04:46.983Z,5.15
2018-07-09T10:07:15.628Z,4.55
2018-07-09T10:09:44.146Z,4.70
2018-07-09T10:12:12.618Z,5.12
2018-07-09T10:14:41.115Z,4.97
2018-07-09T10:17:09.612Z,5.08
2018-07-09T10:19:38.075Z,5.05
2018-07-09T10:22:06.567Z,4.75
2018-07-09T10:24:35.292Z,4.80
2018-07-09T10:27:03.816Z,4.53
2018-07-09T10:29:32.308Z,4.15
2018-07-09T10:32:00.800Z,4.75
2018-07-09T10:34:29.282Z,4.30
2018-07-09T10:36:57.758Z,4.47
2018-07-09T10:39:26.312Z,4.33
2018-07-09T10:41:54.857Z,4.95
2018-07-09T10:44:23.646Z,4.85
2018-07-09T10:46:52.167Z,4.17
2018-07-09T10:49:20.689Z,4.50
2018-07-09T10:51:49.144Z,4.60
2018-07-09T10:54:17.647Z,4.53
2018-07-09T10:56:46.136Z,4.85
2018-07-09T10:59:15.025Z,4.33
2018-07-09T11:07:31.180Z,3.77
2018-07-09T11:09:59.704Z,4.37
2018-07-09T11:12:28.232Z,4.70
2018-07-09T11:14:56.751Z,3.92
2018-07-09T11:17:25.243Z,3.98
2018-07-09T11:19:53.763Z,4.30
2018-07-09T11:22:22.235Z,4.45
2018-07-09T11:24:50.741Z,4.55
2018-07-09T11:27:19.570Z,4.10
2018-07-09T11:29:48.050Z,3.98
2018-07-09T11:32:16.494Z,4.17
2018-07-09T11:34:44.974Z,4.12
2018-07-09T11:37:13.475Z,4.00
2018-07-09T11:39:41.995Z,4.10
2018-07-09T11:42:10.506Z,4.62
2018-07-09T11:44:39.018Z,4.12
2018-07-09T11:47:08.101Z,4.53
2018-07-09T11:49:36.636Z,4.03
2018-07-09T11:52:05.248Z,4.25
2018-07-09T11:54:33.744Z,3.80
2018-07-09T11:57:02.338Z,3.98
2018-07-09T11:59:31.086Z,4.40
2018-07-09T12:01:59.702Z,4.20
2018-07-09T12:04:28.223Z,4.35
2018-07-09T12:06:56.716Z,4.17
2018-07-09T12:09:25.227Z,3.55
2018-07-09T12:11:53.729Z,3.83
2018-07-09T12:14:22.203Z,3.67
2018-07-09T12:16:50.796Z,3.58
2018-07-09T12:19:19.266Z,3.52
2018-07-09T12:21:47.769Z,3.22
2018-07-09T12:24:16.244Z,3.62
2018-07-09T12:26:44.783Z,4.08
2018-07-09T12:29:13.322Z,3.67
2018-07-09T12:31:44.023Z,3.85
2018-07-09T12:34:12.504Z,3.98
2018-07-09T12:36:40.984Z,3.37
2018-07-09T12:39:09.466Z,3.92
2018-07-09T12:41:37.983Z,4.12
2018-07-09T12:44:06.491Z,3.80
2018-07-09T12:46:34.980Z,3.87
2018-07-09T12:49:03.479Z,4.78
2018-07-09T12:51:31.966Z,3.77
2018-07-09T12:54:00.437Z,3.33
2018-07-09T12:56:28.916Z,3.87
2018-07-09T12:58:57.402Z,4.67
2018-07-09T13:01:25.969Z,5.03
2018-07-09T13:03:54.428Z,3.95
2018-07-09T13:06:22.932Z,3.90
2018-07-09T13:08:51.390Z,3.62
2018-07-09T13:11:19.935Z,4.00
2018-07-09T13:13:48.422Z,4.03
2018-07-09T13:16:17.025Z,4.08
2018-07-09T13:18:45.514Z,4.30
2018-07-09T13:21:14.007Z,4.05
2018-07-09T13:23:42.478Z,4.33
2018-07-09T13:26:10.977Z,4.05
2018-07-09T13:28:39.518Z,4.10
2018-07-09T13:31:08.042Z,4.35
2018-07-09T13:33:36.546Z,3.83
2018-07-09T13:36:05.238Z,4.17
2018-07-09T13:38:33.779Z,4.00
2018-07-09T13:41:02.546Z,3.77
2018-07-09T13:43:31.040Z,4.25
2018-07-09T13:45:59.566Z,4.22
2018-07-09T13:48:28.064Z,4.22
2018-07-09T13:50:56.575Z,3.72
2018-07-09T13:53:25.358Z,4.40
2018-07-09T13:55:53.884Z,3.98
2018-07-09T13:58:22.464Z,4.80
2018-07-09T14:00:50.942Z,3.83
2018-07-09T14:03:19.471Z,4.30
2018-07-09T14:05:47.976Z,4.05
2018-07-09T14:08:16.447Z,4.00
2018-07-09T14:10:44.896Z,4.37
2018-07-09T14:13:13.392Z,4.17
2018-07-09T14:15:41.868Z,3.75
2018-07-09T14:18:10.379Z,4.00
2018-07-09T14:20:42.998Z,4.15
2018-07-09T14:23:12.797Z,4.55
2018-07-09T14:25:41.549Z,3.85
2018-07-09T14:28:10.108Z,4.17
2018-07-09T14:30:38.633Z,4.03
2018-07-09T14:33:07.374Z,3.42
2018-07-09T14:35:35.908Z,4.05
2018-07-09T14:38:04.579Z,4.42
2018-07-09T14:40:33.112Z,3.90
2018-07-09T14:43:01.630Z,4.00
2018-07-09T14:45:30.129Z,3.95
2018-07-09T14:47:58.656Z,3.92
2018-07-09T14:50:27.172Z,4.25
2018-07-09T14:52:55.654Z,4.33
2018-07-09T14:55:24.144Z,4.22
2018-07-09T14:57:52.658Z,4.75
2018-07-09T15:00:21.209Z,4.08
2018-07-09T15:02:49.723Z,4.22
2018-07-09T15:05:18.211Z,4.05
2018-07-09T15:07:46.738Z,3.37
2018-07-09T15:10:15.213Z,4.40
2018-07-09T15:12:43.760Z,3.80
2018-07-09T15:15:12.225Z,3.87
2018-07-09T15:17:40.732Z,4.08
2018-07-09T15:20:09.235Z,3.85
2018-07-09T15:22:37.862Z,3.87
2018-07-09T15:25:06.948Z,4.42
2018-07-09T15:27:35.458Z,4.10
2018-07-09T15:30:04.357Z,4.28
2018-07-09T15:32:34.143Z,3.80
2018-07-09T15:35:02.657Z,4.00
2018-07-09T15:37:31.159Z,4.00
2018-07-09T15:39:59.652Z,4.05
2018-07-09T15:42:28.191Z,4.45
2018-07-09T15:44:57.357Z,4.15
2018-07-09T15:47:25.839Z,3.95
2018-07-09T15:49:54.371Z,4.37
2018-07-09T15:52:22.891Z,4.37
2018-07-09T15:54:51.655Z,4.05
2018-07-09T15:57:20.108Z,4.03
2018-07-09T15:59:48.606Z,4.35
2018-07-09T16:02:17.074Z,4.30
2018-07-09T16:04:45.723Z,3.67
2018-07-09T16:07:14.369Z,4.58
2018-07-09T16:09:43.131Z,4.12
2018-07-09T16:12:11.728Z,4.47
2018-07-09T16:14:40.300Z,4.42
2018-07-09T16:17:08.794Z,4.12
2018-07-09T16:19:37.419Z,4.15
2018-07-09T16:22:05.908Z,4.15
2018-07-09T16:24:34.417Z,3.72
2018-07-09T16:27:02.927Z,4.20
2018-07-09T16:29:31.410Z,3.90
2018-07-09T16:31:59.868Z,3.80
2018-07-09T16:34:28.369Z,4.45
2018-07-09T16:36:56.852Z,4.08
2018-07-09T16:39:25.347Z,4.00
2018-07-09T16:41:53.830Z,3.85
2018-07-09T16:44:22.332Z,3.75
2018-07-09T16:46:50.946Z,4.50
2018-07-09T16:49:20.117Z,3.85
2018-07-09T16:51:48.639Z,4.17
2018-07-09T16:54:17.180Z,4.10
2018-07-09T16:56:45.677Z,3.92
2018-07-09T16:59:14.170Z,4.35
2018-07-09T17:01:42.644Z,4.33
2018-07-09T17:04:13.461Z,3.58
2018-07-09T17:06:41.946Z,3.87
2018-07-09T17:09:10.620Z,4.40
2018-07-09T17:11:39.310Z,3.75
2018-07-09T17:14:07.823Z,3.55
2018-07-09T17:16:36.514Z,3.92
2018-07-09T17:19:05.071Z,4.00
2018-07-09T17:24:26.072Z,3.90
2018-07-09T17:26:54.640Z,3.58
2018-07-09T17:29:23.079Z,4.42
2018-07-09T17:31:51.558Z,4.08
2018-07-09T17:34:20.063Z,4.08
2018-07-09T17:36:48.581Z,3.75
2018-07-09T17:39:17.075Z,3.92
2018-07-09T17:44:45.396Z,3.55
2018-07-09T17:47:13.899Z,4.15
2018-07-09T17:49:42.429Z,4.12
2018-07-09T17:52:10.936Z,4.45
2018-07-09T17:54:39.432Z,4.28
2018-07-09T17:57:07.961Z,3.87
2018-07-09T17:59:36.574Z,4.40
2018-07-09T18:02:05.099Z,4.90
2018-07-09T18:04:33.648Z,3.83
2018-07-09T18:07:02.262Z,4.42
2018-07-09T18:09:30.785Z,4.35
2018-07-09T18:11:59.433Z,4.22
2018-07-09T18:14:28.106Z,4.20
2018-07-09T18:16:56.631Z,4.47
2018-07-09T18:19:25.151Z,4.78
2018-07-09T18:21:53.660Z,4.62
2018-07-09T18:24:22.206Z,5.20
2018-07-09T18:26:50.874Z,4.65
2018-07-09T18:29:19.361Z,5.17
2018-07-09T18:31:47.850Z,4.87
2018-07-09T18:34:16.343Z,5.33
2018-07-09T18:36:44.863Z,4.92
2018-07-09T18:39:13.876Z,4.92
2018-07-09T18:41:42.638Z,5.33
2018-07-09T18:44:11.120Z,4.28
2018-07-09T18:46:39.867Z,4.50
2018-07-09T18:49:08.374Z,5.00
2018-07-09T18:51:36.912Z,5.25
2018-07-09T18:54:05.418Z,5.42
2018-07-09T18:56:33.972Z,4.47
2018-07-09T18:59:02.477Z,5.33
2018-07-09T19:01:31.016Z,4.53
2018-07-09T19:03:59.556Z,4.80
2018-07-09T19:07:02.144Z,4.92
2018-07-09T19:09:31.338Z,4.80
2018-07-09T19:12:00.680Z,4.70
2018-07-09T19:14:36.340Z,4.97
2018-07-09T19:18:20.028Z,4.80
2018-07-09T19:21:27.059Z,5.08
2018-07-09T19:23:54.655Z,4.80
2018-07-09T19:26:22.488Z,4.87
2018-07-09T19:28:49.972Z,4.70
2018-07-09T19:31:17.690Z,4.70
2018-07-09T19:33:45.128Z,5.28
2018-07-09T19:36:12.714Z,4.92
2018-07-09T19:38:40.166Z,4.90
2018-07-09T19:41:07.983Z,5.00
2018-07-09T19:43:35.700Z,4.92
2018-07-09T19:46:03.091Z,5.33
2018-07-09T19:48:30.534Z,5.17
2018-07-09T19:50:57.927Z,5.75
2018-07-09T19:53:25.275Z,5.42
2018-07-09T19:55:52.687Z,5.80
2018-07-09T19:58:20.105Z,4.92
2018-07-09T20:00:47.495Z,5.92
2018-07-09T20:03:14.832Z,6.25
2018-07-09T20:05:42.179Z,5.90
2018-07-09T20:08:09.668Z,6.42
2018-07-09T20:10:42.175Z,6.12
2018-07-09T20:13:14.807Z,6.40
2018-07-09T20:15:47.436Z,6.58
2018-07-09T20:18:14.844Z,7.22
2018-07-09T20:20:42.789Z,6.80
2018-07-09T20:23:10.160Z,6.95
2018-07-09T20:25:37.557Z,6.60
2018-07-09T20:28:04.915Z,7.08
2018-07-09T20:30:32.472Z,7.33
2018-07-09T20:32:59.840Z,8.03
2018-07-09T20:35:27.259Z,7.08
2018-07-09T20:37:54.770Z,7.35
2018-07-09T20:40:22.167Z,7.22
2018-07-09T20:42:49.966Z,7.17
2018-07-09T20:45:17.396Z,7.83
2018-07-09T20:47:44.767Z,7.92
2018-07-09T20:50:12.193Z,7.53
2018-07-09T20:52:39.572Z,7.40
2018-07-09T20:55:07.092Z,7.37
2018-07-09T20:57:34.488Z,7.37
2018-07-09T21:00:02.206Z,7.87
2018-07-09T21:02:29.578Z,7.97
2018-07-09T21:04:56.912Z,7.25
2018-07-09T21:07:24.271Z,7.78
2018-07-09T21:09:51.614Z,8.10
2018-07-09T21:12:18.975Z,8.18
2018-07-09T21:14:46.314Z,8.30
2018-07-09T21:17:13.658Z,8.18
2018-07-09T21:19:41.007Z,7.92
2018-07-09T21:22:08.437Z,9.03
2018-07-09T21:24:35.759Z,7.67
2018-07-09T21:27:03.137Z,8.35
2018-07-09T21:29:30.470Z,9.00
2018-07-09T21:31:57.831Z,8.83
2018-07-09T21:34:25.172Z,8.38
2018-07-09T21:36:52.540Z,8.68
2018-07-09T21:39:19.873Z,9.00
2018-07-09T21:41:47.251Z,8.88
2018-07-09T21:44:14.583Z,9.63
2018-07-09T21:46:41.920Z,8.25
2018-07-09T21:49:09.279Z,8.75
2018-07-09T21:51:36.613Z,9.10
2018-07-09T21:54:03.988Z,8.90
2018-07-09T21:56:31.392Z,9.10
2018-07-09T21:58:58.731Z,10.03
2018-07-09T22:01:26.067Z,9.80
2018-07-09T22:03:53.427Z,9.70
2018-07-09T22:06:20.823Z,9.48
2018-07-09T22:08:48.184Z,9.75
2018-07-09T22:11:15.535Z,9.50
2018-07-09T22:13:42.908Z,8.80
2018-07-09T22:16:10.251Z,8.95
2018-07-09T22:18:38.046Z,10.23
2018-07-09T22:21:05.397Z,9.25
2018-07-09T22:23:32.763Z,9.43
2018-07-09T22:26:00.124Z,9.80
2018-07-09T22:28:27.481Z,8.88
2018-07-09T22:30:56.028Z,7.78
2018-07-09T22:33:24.552Z,9.38
2018-07-09T22:35:53.032Z,9.65
2018-07-09T22:38:21.535Z,9.28
2018-07-09T22:40:49.997Z,8.33
2018-07-09T22:43:29.484Z,8.60
2018-07-09T22:45:57.979Z,10.10
2018-07-09T22:48:26.571Z,9.33
2018-07-09T22:50:55.113Z,8.95
2018-07-09T22:53:24.435Z,10.35
2018-07-09T22:56:05.240Z,10.45
2018-07-09T22:58:33.770Z,10.93
2018-07-09T23:01:02.799Z,10.60
2018-07-09T23:03:31.317Z,10.80
2018-07-09T23:05:59.837Z,10.82
2018-07-09T23:08:28.331Z,10.32
2018-07-09T23:13:22.802Z,9.90
2018-07-09T23:17:02.390Z,9.35
2018-07-09T23:22:13.619Z,8.88
2018-07-09T23:24:40.987Z,9.25
2018-07-09T23:27:08.356Z,10.17
2018-07-09T23:29:35.737Z,8.33
2018-07-09T23:32:03.087Z,9.08
2018-07-09T23:34:30.453Z,8.57
2018-07-09T23:36:57.799Z,8.23
2018-07-09T23:39:25.192Z,8.65
2018-07-09T23:41:52.515Z,7.30
2018-07-09T23:44:19.879Z,9.10
2018-07-09T23:46:47.229Z,7.70
2018-07-09T23:49:14.581Z,8.00
2018-07-09T23:51:41.915Z,9.60
2018-07-09T23:54:09.282Z,9.58
2018-07-09T23:59:57.126Z,9.03
